MDT,Max TemperatureF,Mean TemperatureF,Min TemperatureF,Max Dew PointF,MeanDew PointF,Min DewpointF,Max Humidity, Mean Humidity, Min Humidity, Max Sea Level PressureIn, Mean Sea Level PressureIn, Min Sea Level PressureIn, Max VisibilityMiles, Mean VisibilityMiles, Min VisibilityMiles, Max Wind SpeedMPH, Mean Wind SpeedMPH, Max Gust SpeedMPH,PrecipitationIn, CloudCover, Events, WindDirDegrees
2013-3-1,47,33,19,27,21,16,84,58,31,30.36,30.30,30.23,10,10,10,23,11,29,0.00,6,,306
2013-3-2,63,48,32,30,27,22,75,49,23,30.27,30.15,29.94,10,10,10,24,11,32,0.00,1,,306
2013-3-3,67,49,31,31,28,25,78,52,25,29.92,29.68,29.57,10,10,2,36,14,44,0.00,2,,306
2013-3-4,41,30,19,24,13,5,72,49,25,30.32,30.00,29.73,10,10,8,44,20,53,0.00,4,,317
2013-3-5,44,28,11,11,9,6,80,52,24,30.45,30.34,30.22,10,10,10,21,8,26,0.00,0,,251
2013-3-6,61,40,19,25,19,12,77,48,19,30.20,30.00,29.83,10,10,10,22,14,26,0.00,0,,115
2013-3-7,67,43,19,27,22,17,92,55,17,30.04,29.96,29.87,10,10,9,21,8,26,0.00,0,,76
2013-3-8,49,36,23,30,27,20,88,67,46,30.05,29.90,29.75,10,10,9,17,8,21,0.00,1,,67
2013-3-9,43,36,28,31,27,14,92,66,40,30.15,29.84,29.70,10,6,1,29,14,38,0.13,7,Snow,351
2013-3-10,48,32,16,20,10,3,84,51,17,30.24,30.14,30.01,10,10,10,28,12,35,0.00,1,,345
2013-3-11,48,36,23,29,22,11,82,58,34,30.18,30.02,29.95,10,10,10,31,12,38,T,6,,314
2013-3-12,48,37,25,24,18,14,75,52,28,30.37,30.29,30.22,10,10,10,22,11,29,0.00,3,,297
2013-3-13,68,44,19,31,24,18,92,56,20,30.27,30.18,30.09,10,10,6,17,8,25,0.00,0,,305
2013-3-14,73,54,35,30,27,23,70,44,18,30.23,30.11,29.97,10,10,10,18,7,24,0.00,0,,297
2013-3-15,76,58,40,31,27,21,55,37,19,30.02,29.83,29.73,10,10,10,33,11,40,0.00,1,,349
2013-3-16,58,45,31,32,29,24,76,52,29,29.99,29.89,29.76,10,10,10,25,13,36,0.00,5,,119
2013-3-17,60,44,28,32,22,5,92,54,16,29.87,29.64,29.43,10,8,1,47,18,61,0.00,5,,240
2013-3-18,47,31,15,20,14,10,92,58,23,30.00,29.94,29.86,10,10,10,22,9,29,0.00,2,,323
2013-3-19,47,32,16,27,22,14,92,61,30,30.43,30.17,29.97,10,8,2,38,12,46,0.01,4,Snow,337
2013-3-20,58,35,12,33,19,9,92,56,19,30.43,30.05,29.70,10,10,10,21,10,29,T,2,,148
2013-3-21,53,40,27,37,27,18,78,59,39,29.86,29.66,29.52,10,10,8,40,13,47,T,3,Rain,35
2013-3-22,49,36,22,25,18,8,88,55,22,29.99,29.88,29.78,10,10,10,25,10,31,0.00,5,,319
2013-3-23,34,21,8,21,11,6,81,57,32,30.34,30.17,30.00,10,10,3,28,13,33,0.02,5,Snow,358
2013-3-24,33,19,5,13,4,1,88,57,26,30.37,30.28,30.22,10,10,10,37,13,48,0.00,4,,326
2013-3-25,43,23,3,10,2,-3,87,52,17,30.45,30.37,30.28,10,10,10,18,7,22,0.00,0,,332
2013-3-26,56,35,14,25,13,5,67,43,19,30.27,30.08,29.96,10,10,10,18,7,23,0.00,3,,56
2013-3-27,61,44,27,41,24,16,89,59,28,30.09,30.05,29.99,10,10,10,18,6,23,0.02,4,,116
2013-3-28,68,49,30,34,27,19,92,57,22,30.09,30.04,29.99,10,10,8,21,8,32,0.00,0,,10
2013-3-29,72,51,30,33,29,21,69,47,24,30.09,30.01,29.92,10,10,10,25,8,41,0.00,3,,293
2013-3-30,56,43,30,38,33,26,100,71,42,30.19,30.09,29.98,10,10,5,26,8,32,0.03,4,Rain,325
2013-3-31,69,46,23,36,26,17,100,61,22,30.17,30.05,29.90,10,8,0,29,11,35,0.00,0,Fog,19